Time;durP1;ratioP1;P1;durP2;ratioP2;P2;SDS_P1;SDS_P2;PMS_P1;PMS_P2;Temp;Humidity;BMP_temperature;BMP_pressure;BME280_temperature;BME280_humidity;BME280_pressure;Samples;Min_cycle;Max_cycle;Signal;HPM_P1;HPM_P2
2023/04/04 00:01:40;;;;;;;3.88;1.45;;;4.00;99.90;;;;;;5034657;28;20035;-79
2023/04/04 00:04:07;;;;;;;3.90;1.67;;;4.00;99.90;;;;;;5031223;28;20040;-78
2023/04/04 00:06:33;;;;;;;3.80;1.40;;;4.00;99.90;;;;;;5032950;28;20030;-79
2023/04/04 00:09:00;;;;;;;4.65;2.45;;;3.90;99.90;;;;;;5036469;28;20556;-79
2023/04/04 00:11:26;;;;;;;5.27;2.50;;;3.90;99.90;;;;;;5042518;28;20028;-78
2023/04/04 00:13:52;;;;;;;7.65;2.35;;;3.90;99.90;;;;;;5032997;28;20486;-79
2023/04/04 00:16:17;;;;;;;5.47;1.80;;;3.90;99.90;;;;;;5034113;28;20553;-80
2023/04/04 00:18:44;;;;;;;4.22;1.80;;;3.80;99.90;;;;;;5044459;28;20030;-79
2023/04/04 00:21:10;;;;;;;6.40;1.67;;;3.70;99.90;;;;;;5045070;28;20041;-79
2023/04/04 00:23:36;;;;;;;4.75;1.88;;;3.70;99.90;;;;;;5046940;28;20086;-79
2023/04/04 00:26:01;;;;;;;2.38;1.48;;;3.70;99.90;;;;;;5042388;28;20028;-79
2023/04/04 00:28:28;;;;;;;4.50;1.70;;;3.60;99.90;;;;;;5018147;28;20093;-79
2023/04/04 00:30:54;;;;;;;3.47;1.77;;;3.60;99.90;;;;;;4996175;28;20064;-79
2023/04/04 00:33:20;;;;;;;3.72;1.15;;;3.60;99.90;;;;;;5001055;28;20107;-79
2023/04/04 00:35:47;;;;;;;3.30;1.08;;;3.60;99.90;;;;;;5024475;28;20029;-79
2023/04/04 00:38:13;;;;;;;3.22;1.35;;;3.50;99.90;;;;;;5011375;28;20064;-79
2023/04/04 00:40:56;;;;;;;6.00;2.65;;;3.50;99.90;;;;;;5021607;28;20037;-79
2023/04/04 00:43:21;;;;;;;3.72;2.13;;;3.40;99.90;;;;;;5014271;28;20066;-79
2023/04/04 00:45:49;;;;;;;4.93;1.65;;;3.40;99.90;;;;;;5011466;28;20070;-79
2023/04/04 00:48:15;;;;;;;3.83;1.77;;;3.40;99.90;;;;;;5011796;28;20042;-79
2023/04/04 00:50:42;;;;;;;3.67;1.80;;;3.40;99.90;;;;;;4999235;28;20109;-78
2023/04/04 00:53:07;;;;;;;7.35;1.92;;;3.30;99.90;;;;;;5011168;28;20046;-78
2023/04/04 00:55:35;;;;;;;3.65;2.00;;;3.30;99.90;;;;;;5011363;28;20026;-79
2023/04/04 00:58:01;;;;;;;;;;;3.20;99.90;;;;;;5004782;28;20053;-78
2023/04/04 01:00:27;;;;;;;3.45;1.55;;;3.10;99.90;;;;;;5050434;28;19995;-77
2023/04/04 01:02:53;;;;;;;2.20;1.25;;;3.10;99.90;;;;;;5051630;28;20430;-78
2023/04/04 01:05:18;;;;;;;3.65;1.58;;;3.10;99.90;;;;;;5063523;28;20069;-78
2023/04/04 01:07:44;;;;;;;4.90;2.00;;;3.10;99.90;;;;;;5051073;28;20136;-79
2023/04/04 01:10:11;;;;;;;2.05;1.50;;;3.10;99.90;;;;;;5071984;28;20037;-77
2023/04/04 01:12:36;;;;;;;2.78;1.67;;;3.10;99.90;;;;;;5068879;28;20405;-79
2023/04/04 01:15:02;;;;;;;2.50;1.77;;;3.10;99.90;;;;;;5056252;28;20033;-79
2023/04/04 01:17:28;;;;;;;2.90;1.85;;;3.10;99.90;;;;;;5051495;28;20037;-79
2023/04/04 01:20:12;;;;;;;2.88;1.42;;;3.20;99.90;;;;;;5053969;28;20044;-78
2023/04/04 01:22:39;;;;;;;3.28;1.65;;;3.10;99.90;;;;;;5057454;28;20072;-78
2023/04/04 01:25:05;;;;;;;2.15;1.70;;;3.10;99.90;;;;;;5053710;28;20037;-78
2023/04/04 01:27:33;;;;;;;3.03;1.65;;;3.00;99.90;;;;;;5037307;28;20025;-78
2023/04/04 01:29:59;;;;;;;7.88;2.45;;;3.00;99.90;;;;;;5051634;28;20036;-78
2023/04/04 01:33:01;;;;;;;4.43;1.83;;;3.00;99.90;;;;;;5034416;28;20064;-78
2023/04/04 01:35:51;;;;;;;5.93;1.88;;;3.00;99.90;;;;;;5040845;28;20064;-77
2023/04/04 01:38:45;;;;;;;5.13;1.90;;;3.00;99.90;;;;;;5054544;28;20028;-79
2023/04/04 01:41:13;;;;;;;3.53;1.70;;;2.90;99.90;;;;;;5042989;28;20060;-79
2023/04/04 01:43:39;;;;;;;3.83;1.92;;;3.00;99.90;;;;;;5035607;28;20494;-79
2023/04/04 01:46:17;;;;;;;2.88;1.88;;;2.90;99.90;;;;;;5034183;28;20079;-78
2023/04/04 01:48:45;;;;;;;7.43;2.00;;;2.90;99.90;;;;;;5035767;28;20075;-78
2023/04/04 01:51:11;;;;;;;6.18;2.85;;;2.90;99.90;;;;;;5046949;28;20022;-78
2023/04/04 01:53:37;;;;;;;4.53;2.47;;;2.90;99.90;;;;;;5035518;28;20072;-79
2023/04/04 01:56:03;;;;;;;6.32;1.90;;;2.90;99.90;;;;;;5035378;28;20449;-78
2023/04/04 01:58:29;;;;;;;4.43;2.00;;;2.90;99.90;;;;;;5049443;28;20052;-77
2023/04/04 02:00:56;;;;;;;4.38;2.15;;;2.80;99.90;;;;;;5054626;28;20029;-78
2023/04/04 02:03:23;;;;;;;3.40;2.28;;;2.80;99.90;;;;;;5055545;28;20031;-77
2023/04/04 02:05:49;;;;;;;2.20;1.40;;;2.80;99.90;;;;;;5052938;28;20033;-78
2023/04/04 02:08:15;;;;;;;2.60;1.63;;;2.90;99.90;;;;;;5053015;28;20032;-78
2023/04/04 02:10:43;;;;;;;4.32;1.90;;;2.80;99.90;;;;;;5055519;28;20028;-78
2023/04/04 02:13:11;;;;;;;7.95;2.05;;;2.80;99.90;;;;;;5055495;28;20029;-78
2023/04/04 02:15:36;;;;;;;4.53;1.52;;;2.80;99.90;;;;;;5052906;28;20116;-79
2023/04/04 02:18:02;;;;;;;4.35;1.90;;;2.70;99.90;;;;;;5035813;28;20116;-78
2023/04/04 02:20:28;;;;;;;1.58;1.48;;;2.70;99.90;;;;;;5035582;28;20390;-79
2023/04/04 02:22:54;;;;;;;3.08;2.58;;;2.70;99.90;;;;;;5049263;28;20033;-78
2023/04/04 02:25:21;;;;;;;7.97;2.00;;;2.70;99.90;;;;;;5054007;28;20036;-78
2023/04/04 02:27:49;;;;;;;4.15;2.13;;;2.70;99.90;;;;;;5036727;28;20038;-78
2023/04/04 02:30:15;;;;;;;;;;;2.70;99.90;;;;;;5035480;28;20041;-78
2023/04/04 02:32:41;;;;;;;5.28;2.22;;;2.60;99.90;;;;;;5051392;28;20361;-78
2023/04/04 02:35:08;;;;;;;4.55;2.13;;;2.60;99.90;;;;;;5055180;28;20021;-78
2023/04/04 02:37:33;;;;;;;5.03;2.22;;;2.50;99.90;;;;;;5051144;28;20052;-78
2023/04/04 02:39:59;;;;;;;4.55;2.42;;;2.50;99.90;;;;;;5035615;28;20032;-79
2023/04/04 02:42:25;;;;;;;3.30;1.92;;;2.50;99.90;;;;;;5035139;28;20029;-78
2023/04/04 02:44:50;;;;;;;2.50;1.90;;;2.50;99.90;;;;;;5046138;28;20025;-78
2023/04/04 02:47:16;;;;;;;3.42;2.05;;;2.50;99.90;;;;;;5035018;28;20029;-77
2023/04/04 02:49:42;;;;;;;3.97;2.05;;;2.50;99.90;;;;;;5034320;28;20017;-78
2023/04/04 02:52:07;;;;;;;4.82;2.05;;;2.40;99.90;;;;;;5040160;28;20051;-79
2023/04/04 02:54:33;;;;;;;4.72;2.05;;;2.40;99.90;;;;;;5040862;28;20025;-79
2023/04/04 02:57:00;;;;;;;5.15;2.63;;;2.40;99.90;;;;;;5035129;28;20494;-78
2023/04/04 02:59:29;;;;;;;6.43;1.93;;;2.40;99.90;;;;;;5038963;28;20482;-79
2023/04/04 03:01:56;;;;;;;6.88;2.55;;;2.40;99.90;;;;;;5037318;28;20283;-78
2023/04/04 03:04:21;;;;;;;5.43;2.03;;;2.50;99.90;;;;;;5046886;28;20039;-78
2023/04/04 03:06:47;;;;;;;2.72;1.40;;;2.40;99.90;;;;;;5036335;28;20029;-78
2023/04/04 03:09:15;;;;;;;3.58;1.70;;;2.40;99.90;;;;;;5053377;28;20442;-78
2023/04/04 03:11:41;;;;;;;4.20;1.95;;;2.40;99.90;;;;;;5052695;28;20111;-77
2023/04/04 03:14:07;;;;;;;3.08;1.73;;;2.40;99.90;;;;;;5054193;28;20450;-78
2023/04/04 03:16:33;;;;;;;7.03;2.40;;;2.30;99.90;;;;;;5052521;28;20108;-78
2023/04/04 03:18:59;;;;;;;4.85;1.92;;;2.40;99.90;;;;;;5054016;28;20028;-79
2023/04/04 03:21:24;;;;;;;4.30;2.35;;;2.40;99.90;;;;;;5049751;28;20041;-79
2023/04/04 03:23:50;;;;;;;3.63;2.30;;;2.40;99.90;;;;;;5042963;28;20064;-78
2023/04/04 03:26:16;;;;;;;7.93;2.30;;;2.40;99.90;;;;;;5034063;28;20018;-78
2023/04/04 03:28:42;;;;;;;2.17;1.70;;;2.40;99.90;;;;;;5012039;28;20180;-78
2023/04/04 03:31:07;;;;;;;4.78;1.80;;;2.40;99.90;;;;;;5012327;28;20042;-78
2023/04/04 03:33:37;;;;;;;6.55;2.20;;;2.30;99.90;;;;;;5011894;28;20478;-79
2023/04/04 03:36:13;;;;;;;5.28;2.47;;;2.30;99.90;;;;;;4995005;28;20487;-78
2023/04/04 03:38:39;;;;;;;3.20;2.00;;;2.30;99.90;;;;;;5005139;28;20037;-79
2023/04/04 03:41:06;;;;;;;2.35;1.77;;;2.30;99.90;;;;;;5001611;28;20434;-78
2023/04/04 03:43:38;;;;;;;4.53;1.50;;;2.20;99.90;;;;;;5010987;28;20128;-77
2023/04/04 03:46:05;;;;;;;3.88;1.88;;;2.20;99.90;;;;;;5001530;28;20054;-78
2023/04/04 03:48:32;;;;;;;4.40;1.97;;;2.10;99.90;;;;;;5012609;28;20430;-78
2023/04/04 03:50:58;;;;;;;5.30;1.98;;;2.10;99.90;;;;;;5012487;28;20038;-79
2023/04/04 03:53:24;;;;;;;5.05;2.25;;;2.00;99.90;;;;;;5025330;28;20046;-78
2023/04/04 03:55:51;;;;;;;4.95;2.25;;;2.00;99.90;;;;;;5008877;28;20030;-79
2023/04/04 03:58:17;;;;;;;2.58;1.98;;;2.00;99.90;;;;;;5028754;28;20027;-78
2023/04/04 04:00:43;;;;;;;4.13;2.75;;;2.00;99.90;;;;;;5053952;28;20029;-79
2023/04/04 04:03:09;;;;;;;4.22;2.15;;;2.00;99.90;;;;;;5057766;28;20072;-77
2023/04/04 04:05:34;;;;;;;5.53;2.15;;;1.90;99.90;;;;;;5057282;28;20025;-78
2023/04/04 04:08:00;;;;;;;4.20;1.73;;;1.90;99.90;;;;;;5068900;28;20036;-79
2023/04/04 04:10:26;;;;;;;5.38;1.83;;;1.90;99.90;;;;;;5076933;28;20048;-78
2023/04/04 04:12:51;;;;;;;2.72;2.22;;;1.90;99.90;;;;;;5077520;28;20051;-78
2023/04/04 04:15:18;;;;;;;4.45;2.03;;;1.80;99.90;;;;;;5072267;28;20020;-76
2023/04/04 04:17:43;;;;;;;5.97;2.10;;;1.80;99.90;;;;;;5063356;28;20064;-76
2023/04/04 04:20:10;;;;;;;6.25;1.90;;;1.80;99.90;;;;;;5059122;28;20026;-79
2023/04/04 04:22:36;;;;;;;4.47;2.55;;;1.80;99.90;;;;;;5065669;28;20036;-77
2023/04/04 04:25:02;;;;;;;6.05;2.20;;;1.70;99.90;;;;;;5068666;28;20040;-77
2023/04/04 04:27:29;;;;;;;9.20;2.80;;;1.70;99.90;;;;;;5065486;28;20056;-78
2023/04/04 04:29:55;;;;;;;7.10;3.00;;;1.70;99.90;;;;;;5058101;28;20036;-78
2023/04/04 04:32:20;;;;;;;3.30;2.40;;;1.70;99.90;;;;;;5071336;28;20025;-78
2023/04/04 04:34:46;;;;;;;5.63;2.30;;;1.70;99.90;;;;;;5061457;28;20017;-76
2023/04/04 04:37:12;;;;;;;3.55;2.45;;;1.70;99.90;;;;;;5071157;28;20020;-78
2023/04/04 04:39:38;;;;;;;4.93;2.22;;;1.70;99.90;;;;;;5072783;28;20040;-76
2023/04/04 04:42:03;;;;;;;4.03;3.25;;;1.70;99.90;;;;;;5077662;28;20009;-77
2023/04/04 04:44:29;;;;;;;5.72;2.90;;;1.60;99.90;;;;;;5078213;28;20041;-77
2023/04/04 04:46:55;;;;;;;5.45;2.90;;;1.70;99.90;;;;;;5076853;28;20041;-80
2023/04/04 04:49:21;;;;;;;15.23;2.65;;;1.70;99.90;;;;;;5073470;28;20092;-77
2023/04/04 04:51:47;;;;;;;3.22;2.47;;;1.60;99.90;;;;;;5080539;28;20086;-76
2023/04/04 04:54:13;;;;;;;4.90;2.78;;;1.60;99.90;;;;;;5072181;28;20053;-78
2023/04/04 04:56:39;;;;;;;4.63;2.53;;;1.60;99.90;;;;;;5061056;28;20032;-78
2023/04/04 04:59:06;;;;;;;7.00;2.97;;;1.60;99.90;;;;;;5079635;28;20024;-77
2023/04/04 05:01:31;;;;;;;3.40;2.35;;;1.60;99.90;;;;;;5080867;28;20013;-77
2023/04/04 05:03:57;;;;;;;3.50;2.67;;;1.60;99.90;;;;;;5076940;28;20013;-79
2023/04/04 05:06:23;;;;;;;5.38;2.67;;;1.60;99.90;;;;;;5061720;28;20033;-77
2023/04/04 05:08:49;;;;;;;8.50;2.90;;;1.60;99.90;;;;;;5068999;28;20026;-77
2023/04/04 05:11:15;;;;;;;5.72;2.60;;;1.60;99.90;;;;;;5044273;28;20049;-78
2023/04/04 05:13:40;;;;;;;4.43;2.13;;;1.60;99.90;;;;;;5040844;28;20030;-78
2023/04/04 05:16:06;;;;;;;5.20;2.60;;;1.60;99.90;;;;;;5057203;28;20044;-78
2023/04/04 05:18:32;;;;;;;4.88;2.78;;;1.60;99.90;;;;;;5057315;28;20033;-78
2023/04/04 05:20:58;;;;;;;5.88;3.20;;;1.60;99.90;;;;;;5055456;28;20071;-78
2023/04/04 05:23:23;;;;;;;6.40;2.60;;;1.60;99.90;;;;;;5038779;28;20041;-78
2023/04/04 05:25:52;;;;;;;7.40;2.50;;;1.60;99.90;;;;;;5051432;28;20025;-78
2023/04/04 05:28:49;;;;;;;8.07;2.67;;;1.70;99.90;;;;;;5055102;28;20486;-79
2023/04/04 05:31:15;;;;;;;6.82;2.28;;;1.70;99.90;;;;;;5036246;28;20064;-78
2023/04/04 05:33:40;;;;;;;5.82;2.70;;;1.70;99.90;;;;;;5035851;28;20047;-78
2023/04/04 05:36:06;;;;;;;10.27;3.13;;;1.70;99.90;;;;;;5036636;28;20025;-78
2023/04/04 05:38:32;;;;;;;4.00;2.60;;;1.70;99.90;;;;;;5037075;28;20476;-78
2023/04/04 05:40:57;;;;;;;3.60;2.22;;;1.70;99.90;;;;;;5038640;28;20529;-78
2023/04/04 05:43:23;;;;;;;6.85;2.83;;;1.80;99.90;;;;;;5050609;28;20102;-78
2023/04/04 05:45:50;;;;;;;7.38;2.97;;;1.70;99.90;;;;;;5055895;28;20119;-78
2023/04/04 05:48:16;;;;;;;4.37;3.03;;;1.80;99.90;;;;;;5056137;28;20036;-77
2023/04/04 05:50:44;;;;;;;14.80;3.33;;;1.80;99.90;;;;;;5055758;28;20489;-78
2023/04/04 05:53:11;;;;;;;5.20;2.58;;;1.80;99.90;;;;;;5052676;28;20131;-77
2023/04/04 05:55:37;;;;;;;6.30;2.78;;;1.90;99.90;;;;;;5043989;28;20537;-79
2023/04/04 05:58:04;;;;;;;5.95;2.97;;;1.90;99.90;;;;;;5035322;28;20033;-77
2023/04/04 06:00:32;;;;;;;14.63;3.03;;;2.00;99.90;;;;;;5035617;28;20056;-78
2023/04/04 06:02:58;;;;;;;8.13;2.53;;;2.10;99.90;;;;;;5041892;28;20517;-78
2023/04/04 06:05:24;;;;;;;6.25;2.78;;;2.20;99.90;;;;;;5055900;28;20263;-78
2023/04/04 06:07:50;;;;;;;8.77;3.10;;;2.30;99.90;;;;;;5039300;28;20136;-78
2023/04/04 06:10:16;;;;;;;6.00;3.45;;;2.30;99.90;;;;;;5046065;28;20029;-78
2023/04/04 06:12:41;;;;;;;5.55;3.20;;;2.30;99.90;;;;;;5043644;28;20030;-77
2023/04/04 06:15:09;;;;;;;14.20;4.60;;;2.40;99.90;;;;;;5034359;28;20033;-79
2023/04/04 06:17:37;;;;;;;5.25;2.92;;;2.40;99.90;;;;;;5036228;28;20551;-77
2023/04/04 06:20:03;;;;;;;6.32;2.72;;;2.50;99.90;;;;;;5049550;28;20037;-78
2023/04/04 06:22:31;;;;;;;5.82;2.65;;;2.60;99.90;;;;;;5040354;28;20049;-78
2023/04/04 06:24:56;;;;;;;8.95;3.85;;;2.70;99.90;;;;;;5036015;28;20124;-79
2023/04/04 06:27:23;;;;;;;5.43;2.75;;;2.80;99.90;;;;;;5051639;28;20124;-78
2023/04/04 06:29:49;;;;;;;8.48;3.13;;;2.80;99.90;;;;;;5042000;28;20042;-78
2023/04/04 06:32:19;;;;;;;4.53;3.45;;;2.90;99.90;;;;;;5034203;28;20508;-79
2023/04/04 06:34:44;;;;;;;5.00;2.75;;;3.00;99.90;;;;;;5046491;28;20051;-78
2023/04/04 06:37:13;;;;;;;8.90;2.97;;;3.10;99.90;;;;;;5045733;28;20021;-77
2023/04/04 06:39:38;;;;;;;7.88;2.95;;;3.20;99.90;;;;;;5034107;28;20032;-78
2023/04/04 06:42:05;;;;;;;5.28;2.97;;;3.30;99.90;;;;;;5034739;28;20393;-78
2023/04/04 06:44:31;;;;;;;9.93;3.00;;;3.40;99.90;;;;;;5050125;28;20063;-77
2023/04/04 06:46:56;;;;;;;3.72;2.65;;;3.40;99.90;;;;;;5043644;28;20069;-78
2023/04/04 06:49:26;;;;;;;7.22;2.95;;;3.40;99.90;;;;;;5048667;28;20452;-78
2023/04/04 06:51:53;;;;;;;7.28;3.28;;;3.50;99.90;;;;;;5041701;28;20028;-78
2023/04/04 06:54:18;;;;;;;5.93;3.20;;;3.70;99.90;;;;;;5038825;28;20068;-79
2023/04/04 06:56:44;;;;;;;6.05;2.95;;;3.80;99.90;;;;;;5041032;28;20064;-79
2023/04/04 06:59:11;;;;;;;4.32;2.75;;;3.80;99.90;;;;;;5043705;28;20025;-77
2023/04/04 07:01:36;;;;;;;5.75;2.67;;;4.00;99.90;;;;;;5048926;28;20037;-78
2023/04/04 07:04:02;;;;;;;5.68;2.83;;;4.20;99.90;;;;;;5053299;28;20491;-77
2023/04/04 07:06:31;;;;;;;4.18;2.40;;;4.30;99.90;;;;;;5054053;28;20032;-78
2023/04/04 07:08:57;;;;;;;7.50;2.33;;;4.40;99.90;;;;;;5053265;28;20367;-78
2023/04/04 07:11:23;;;;;;;5.30;2.65;;;4.50;99.90;;;;;;5037263;28;20028;-78
2023/04/04 07:13:49;;;;;;;10.93;2.65;;;4.60;99.90;;;;;;5046749;28;20476;-78
2023/04/04 07:16:15;;;;;;;9.27;3.65;;;4.70;99.90;;;;;;5040997;28;20432;-78
2023/04/04 07:18:41;;;;;;;3.75;1.80;;;4.80;99.90;;;;;;5039218;28;20029;-78
2023/04/04 07:21:06;;;;;;;3.38;2.22;;;4.80;99.90;;;;;;5043584;28;20103;-77
2023/04/04 07:23:32;;;;;;;9.65;2.42;;;5.00;99.90;;;;;;5042327;28;20032;-77
2023/04/04 07:26:01;;;;;;;3.42;2.13;;;5.20;99.90;;;;;;5036763;28;20695;-77
2023/04/04 07:28:27;;;;;;;5.72;2.50;;;5.30;99.90;;;;;;5046109;28;20036;-77
2023/04/04 07:30:52;;;;;;;7.93;2.47;;;5.40;99.90;;;;;;5053398;28;20055;-77
2023/04/04 07:33:18;;;;;;;5.85;2.42;;;5.60;99.90;;;;;;5051595;28;20033;-76
2023/04/04 07:35:44;;;;;;;3.00;1.98;;;5.80;99.90;;;;;;5044242;28;20496;-76
2023/04/04 07:38:09;;;;;;;7.32;2.40;;;6.00;99.90;;;;;;5032120;28;20045;-79
2023/04/04 07:40:35;;;;;;;2.88;1.88;;;6.10;99.90;;;;;;5040014;28;20393;-77
2023/04/04 07:43:01;;;;;;;5.13;2.25;;;6.20;99.90;;;;;;5033257;28;20045;-79
2023/04/04 07:45:27;;;;;;;4.88;2.30;;;6.20;99.90;;;;;;5033400;28;20052;-80
2023/04/04 07:47:53;;;;;;;3.28;2.20;;;6.30;99.90;;;;;;5033883;28;20029;-79
2023/04/04 07:50:19;;;;;;;3.75;2.08;;;6.40;99.90;;;;;;5037397;28;20071;-78
2023/04/04 07:52:54;;;;;;;6.00;2.53;;;6.50;99.90;;;;;;5045478;28;20371;-79
2023/04/04 07:55:23;;;;;;;3.78;2.05;;;6.60;99.90;;;;;;5047175;28;20040;-79
2023/04/04 07:57:50;;;;;;;3.58;2.10;;;6.70;99.90;;;;;;5048657;28;20021;-80
2023/04/04 08:00:20;;;;;;;6.90;2.38;;;6.90;99.90;;;;;;5033753;28;20095;-78
2023/04/04 08:02:57;;;;;;;6.28;1.90;;;7.00;99.90;;;;;;5049490;28;20501;-79
2023/04/04 08:05:23;;;;;;;4.75;2.08;;;7.20;99.90;;;;;;5052740;28;20064;-79
2023/04/04 08:07:49;;;;;;;4.57;1.80;;;7.30;99.90;;;;;;5047624;28;20519;-78
2023/04/04 08:10:17;;;;;;;3.85;2.10;;;7.40;99.90;;;;;;5049787;28;20033;-78
2023/04/04 08:12:44;;;;;;;3.67;1.63;;;7.50;99.90;;;;;;5037213;28;20118;-77
2023/04/04 08:15:10;;;;;;;4.38;1.80;;;7.50;99.90;;;;;;5030800;28;20044;-78
2023/04/04 08:17:37;;;;;;;3.85;1.50;;;7.60;99.90;;;;;;5035916;28;20033;-79
2023/04/04 08:20:04;;;;;;;1.50;1.20;;;7.70;99.90;;;;;;5035102;28;20022;-78
2023/04/04 08:22:30;;;;;;;1.95;1.23;;;7.80;99.90;;;;;;5036118;28;20029;-79
2023/04/04 08:24:56;;;;;;;2.22;1.30;;;7.90;99.90;;;;;;5039825;28;20116;-78
2023/04/04 08:27:21;;;;;;;1.88;1.10;;;8.10;99.90;;;;;;5057652;28;20078;-78
2023/04/04 08:29:47;;;;;;;1.73;1.20;;;8.30;99.00;;;;;;5041786;28;20025;-78
2023/04/04 08:32:14;;;;;;;2.45;1.38;;;8.40;98.30;;;;;;5033592;28;20375;-80
2023/04/04 08:34:41;;;;;;;2.95;1.30;;;8.40;99.10;;;;;;5038378;28;20029;-79
2023/04/04 08:37:07;;;;;;;3.00;1.20;;;8.50;97.90;;;;;;5036760;28;20036;-77
2023/04/04 08:39:33;;;;;;;1.77;1.13;;;8.60;97.90;;;;;;5044811;28;20033;-77
2023/04/04 08:42:06;;;;;;;4.22;1.40;;;8.50;97.60;;;;;;5044030;28;20407;-79
2023/04/04 08:44:33;;;;;;;4.45;1.45;;;8.40;98.20;;;;;;5050576;28;20025;-79
2023/04/04 08:47:02;;;;;;;3.77;1.70;;;8.50;98.40;;;;;;5044567;28;20037;-78
2023/04/04 08:49:31;;;;;;;1.40;1.30;;;8.50;98.50;;;;;;5049305;28;21745;-78
2023/04/04 08:51:58;;;;;;;1.33;0.70;;;8.80;98.80;;;;;;5050932;28;20043;-78
2023/04/04 08:54:27;;;;;;;2.83;1.65;;;9.00;97.30;;;;;;5038731;28;20037;-78
2023/04/04 08:56:53;;;;;;;2.47;0.93;;;9.10;97.40;;;;;;5057464;28;20033;-78
2023/04/04 08:59:20;;;;;;;2.97;1.38;;;9.00;97.90;;;;;;5045444;28;20028;-79
2023/04/04 09:01:46;;;;;;;2.20;1.25;;;9.10;97.50;;;;;;5054878;28;20057;-80
2023/04/04 09:04:12;;;;;;;3.28;1.17;;;9.10;97.30;;;;;;5048864;28;20428;-78
2023/04/04 09:06:39;;;;;;;3.60;1.10;;;9.20;96.90;;;;;;5036950;28;20083;-77
2023/04/04 09:09:06;;;;;;;1.88;1.30;;;9.20;97.30;;;;;;5038020;28;20044;-79
2023/04/04 09:11:32;;;;;;;2.40;1.37;;;9.20;96.90;;;;;;5038285;28;20076;-78
2023/04/04 09:14:03;;;;;;;3.72;1.75;;;8.90;97.10;;;;;;5036836;28;20284;-79
2023/04/04 09:16:28;;;;;;;2.85;1.50;;;8.50;97.70;;;;;;5035577;28;20029;-78
2023/04/04 09:18:54;;;;;;;5.20;1.38;;;8.60;97.90;;;;;;5039395;28;20021;-79
2023/04/04 09:21:20;;;;;;;5.30;1.52;;;8.80;97.60;;;;;;5049998;28;20036;-79
2023/04/04 09:23:46;;;;;;;5.32;1.33;;;8.80;97.60;;;;;;5056054;28;20039;-78
2023/04/04 09:26:12;;;;;;;8.35;1.40;;;8.80;99.10;;;;;;5053811;28;20032;-78
2023/04/04 09:28:37;;;;;;;5.03;1.40;;;9.00;97.20;;;;;;5052335;28;20064;-78
2023/04/04 09:31:07;;;;;;;5.15;1.83;;;9.30;97.00;;;;;;5036139;28;20045;-79
2023/04/04 09:33:33;;;;;;;3.88;1.48;;;9.30;97.40;;;;;;5039573;28;20089;-79
2023/04/04 09:36:06;;;;;;;2.40;1.48;;;9.20;97.00;;;;;;5044219;28;20063;-79
2023/04/04 09:38:36;;;;;;;4.60;1.30;;;9.10;96.90;;;;;;5048335;28;20382;-79
2023/04/04 09:41:02;;;;;;;6.95;1.67;;;9.30;97.80;;;;;;5038650;28;20045;-79
2023/04/04 09:43:30;;;;;;;5.25;1.55;;;9.40;98.40;;;;;;5033472;28;20479;-79
2023/04/04 09:45:57;;;;;;;3.30;1.73;;;9.50;97.10;;;;;;5033376;28;20446;-79
2023/04/04 09:48:34;;;;;;;2.03;1.20;;;9.70;97.90;;;;;;5025225;28;20124;-79
2023/04/04 09:51:02;;;;;;;1.37;1.00;;;9.80;97.20;;;;;;5051067;28;20045;-79
2023/04/04 09:53:28;;;;;;;3.58;1.65;;;10.00;97.20;;;;;;5047788;28;20049;-79
2023/04/04 09:55:55;;;;;;;2.00;1.15;;;10.00;96.40;;;;;;5033888;28;20124;-78
2023/04/04 09:58:25;;;;;;;2.95;1.73;;;9.90;97.00;;;;;;5028727;28;20035;-82
2023/04/04 10:00:53;;;;;;;5.60;1.70;;;10.00;96.40;;;;;;5042990;28;20444;-79
2023/04/04 10:03:22;;;;;;;3.33;1.48;;;10.10;96.40;;;;;;5018539;28;20030;-81
2023/04/04 10:05:53;;;;;;;4.68;1.58;;;10.00;95.80;;;;;;5034251;28;20040;-81
2023/04/04 10:08:22;;;;;;;4.32;1.60;;;9.90;97.10;;;;;;5010937;28;20137;-82
2023/04/04 10:10:49;;;;;;;3.50;1.60;;;10.00;96.60;;;;;;4996007;28;20096;-80
2023/04/04 10:13:28;;;;;;;5.05;2.25;;;10.00;96.00;;;;;;4975509;28;20047;-82
2023/04/04 10:15:56;;;;;;;2.88;1.33;;;9.90;96.30;;;;;;4975574;28;20043;-81
2023/04/04 10:18:26;;;;;;;4.97;1.23;;;10.00;95.30;;;;;;5006458;28;20049;-81
2023/04/04 10:20:57;;;;;;;3.78;1.58;;;10.20;95.60;;;;;;4977672;28;20129;-80
2023/04/04 10:23:27;;;;;;;6.72;1.70;;;10.40;95.00;;;;;;4994007;28;20105;-84
2023/04/04 10:25:56;;;;;;;4.25;1.20;;;10.50;95.20;;;;;;4977452;28;20045;-84
2023/04/04 10:28:23;;;;;;;3.55;1.63;;;10.40;94.70;;;;;;4975126;28;20071;-82
2023/04/04 10:31:08;;;;;;;4.13;2.05;;;10.40;94.30;;;;;;4994402;28;20050;-82
2023/04/04 10:34:11;;;;;;;7.30;1.80;;;10.30;94.80;;;;;;4974232;28;20039;-83
2023/04/04 10:36:45;;;;;;;3.63;1.52;;;10.40;95.90;;;;;;4957568;28;20031;-76
2023/04/04 10:39:23;;;;;;;4.35;1.55;;;10.50;94.90;;;;;;5001199;28;20433;-79
2023/04/04 10:41:51;;;;;;;5.82;1.33;;;10.60;95.40;;;;;;5021909;28;20056;-78
2023/04/04 10:44:28;;;;;;;;;;;10.90;93.60;;;;;;5036437;28;20033;-78
2023/04/04 10:46:59;;;;;;;4.55;1.58;;;11.00;93.90;;;;;;5036473;28;19916;-78
2023/04/04 10:49:28;;;;;;;4.47;1.67;;;10.90;93.50;;;;;;5032911;28;20509;-78
2023/04/04 10:51:57;;;;;;;8.15;1.95;;;10.90;93.90;;;;;;5033456;28;20115;-78
2023/04/04 10:54:26;;;;;;;2.47;1.15;;;10.90;95.20;;;;;;5032628;28;20418;-77
2023/04/04 10:56:54;;;;;;;2.92;1.55;;;10.90;94.60;;;;;;5044329;28;20067;-78
2023/04/04 10:59:24;;;;;;;4.68;1.25;;;11.00;94.10;;;;;;5039074;28;20065;-78
2023/04/04 11:01:56;;;;;;;2.58;1.58;;;10.90;93.80;;;;;;5036590;28;20045;-78
2023/04/04 11:04:36;;;;;;;5.65;1.80;;;11.00;94.90;;;;;;5032369;28;20060;-78
2023/04/04 11:07:17;;;;;;;1.90;1.67;;;11.20;96.60;;;;;;5031156;28;20065;-77
2023/04/04 11:09:55;;;;;;;5.47;1.52;;;11.30;95.30;;;;;;5031648;28;20053;-78
2023/04/04 11:12:25;;;;;;;3.30;1.38;;;11.40;96.90;;;;;;5031246;28;20061;-78
2023/04/04 11:14:55;;;;;;;2.38;2.17;;;11.50;94.20;;;;;;5031099;28;20030;-76
2023/04/04 11:17:54;;;;;;;3.97;1.70;;;11.70;93.70;;;;;;5039152;28;20047;-77
2023/04/04 11:20:22;;;;;;;6.53;1.52;;;11.80;93.30;;;;;;5034435;28;20036;-78
2023/04/04 11:22:49;;;;;;;2.97;1.85;;;11.80;93.30;;;;;;5046570;28;20043;-76
2023/04/04 11:25:25;;;;;;;2.28;1.55;;;11.70;91.90;;;;;;5053257;28;20028;-77
2023/04/04 11:27:55;;;;;;;3.83;1.35;;;11.80;92.30;;;;;;5052808;28;20039;-78
2023/04/04 11:30:21;;;;;;;5.38;2.05;;;11.70;93.70;;;;;;5051474;28;20040;-78
2023/04/04 11:32:48;;;;;;;4.20;2.03;;;11.80;92.60;;;;;;5027512;28;20030;-78
2023/04/04 11:35:14;;;;;;;1.63;1.30;;;11.90;93.20;;;;;;5032425;28;20485;-77
2023/04/04 11:37:58;;;;;;;2.60;1.98;;;11.90;93.30;;;;;;5031774;28;20413;-77
2023/04/04 11:40:38;;;;;;;4.65;1.83;;;12.10;93.30;;;;;;5031987;28;20143;-77
2023/04/04 11:43:11;;;;;;;3.42;1.60;;;12.10;95.00;;;;;;5040782;28;20033;-77
2023/04/04 11:45:43;;;;;;;3.53;1.55;;;12.00;94.50;;;;;;5043229;28;20045;-77
2023/04/04 11:48:16;;;;;;;2.35;1.25;;;11.80;96.40;;;;;;5047801;28;20104;-77
2023/04/04 11:50:44;;;;;;;4.28;1.65;;;11.80;95.10;;;;;;5042888;28;20061;-77
2023/04/04 11:53:12;;;;;;;6.35;1.50;;;11.70;93.40;;;;;;5032200;28;20137;-78
2023/04/04 11:55:41;;;;;;;3.63;2.35;;;11.70;94.20;;;;;;5031204;28;20069;-77
2023/04/04 11:58:11;;;;;;;6.53;2.05;;;11.70;95.10;;;;;;5030260;28;20091;-78
2023/04/04 12:00:38;;;;;;;3.53;1.50;;;11.70;94.20;;;;;;5031564;28;20045;-77
2023/04/04 12:03:10;;;;;;;3.03;2.00;;;11.70;94.50;;;;;;5046702;28;20465;-77
2023/04/04 12:05:37;;;;;;;2.83;2.00;;;11.70;92.40;;;;;;5051764;28;20354;-79
2023/04/04 12:08:03;;;;;;;2.65;1.70;;;11.80;93.50;;;;;;5049415;28;20037;-78
2023/04/04 12:10:33;;;;;;;2.65;1.27;;;11.90;92.80;;;;;;5051941;28;20033;-78
2023/04/04 12:12:59;;;;;;;2.13;1.67;;;11.90;93.30;;;;;;5052997;28;20462;-77
2023/04/04 12:15:28;;;;;;;2.67;1.67;;;11.90;92.70;;;;;;5027553;28;20033;-77
2023/04/04 12:17:55;;;;;;;4.82;2.30;;;12.10;92.60;;;;;;5033728;28;20490;-78
2023/04/04 12:20:23;;;;;;;5.35;1.50;;;12.10;95.50;;;;;;5011378;28;20042;-78
2023/04/04 12:22:50;;;;;;;2.40;1.50;;;12.10;97.20;;;;;;5012080;28;20046;-77
2023/04/04 12:25:21;;;;;;;5.72;2.08;;;12.20;93.60;;;;;;5019228;28;20081;-77
2023/04/04 12:27:48;;;;;;;3.47;1.60;;;12.30;92.10;;;;;;5011178;28;20037;-77
2023/04/04 12:30:15;;;;;;;2.83;1.70;;;12.10;92.30;;;;;;5013994;28;20037;-77
2023/04/04 12:32:46;;;;;;;2.95;2.45;;;12.10;94.50;;;;;;5008613;28;20030;-78
2023/04/04 12:35:14;;;;;;;5.20;2.17;;;12.00;95.50;;;;;;5011368;28;20521;-77
2023/04/04 12:37:56;;;;;;;10.68;2.38;;;12.10;94.00;;;;;;5011313;28;20091;-77
2023/04/04 12:40:22;;;;;;;2.25;2.00;;;12.20;92.60;;;;;;5010909;28;20038;-78
2023/04/04 12:42:49;;;;;;;5.95;1.88;;;12.10;92.90;;;;;;5011170;28;20057;-78
2023/04/04 12:45:14;;;;;;;1.92;1.13;;;12.10;94.10;;;;;;5010983;28;20037;-78
2023/04/04 12:47:57;;;;;;;3.95;1.77;;;12.10;95.70;;;;;;5029085;28;20048;-78
2023/04/04 12:50:26;;;;;;;2.85;1.95;;;12.10;96.10;;;;;;5033607;28;20029;-77
2023/04/04 12:52:53;;;;;;;5.15;1.67;;;12.40;93.60;;;;;;5047321;28;20017;-77
2023/04/04 12:55:24;;;;;;;2.92;1.85;;;12.60;93.20;;;;;;5032903;28;20029;-78
2023/04/04 12:57:51;;;;;;;5.05;2.00;;;12.50;95.80;;;;;;5034665;28;20025;-78
2023/04/04 13:00:20;;;;;;;5.65;1.17;;;12.60;93.60;;;;;;5052624;28;20028;-78